createdAt,value
2018-07-21T11:19:18.384Z,4.4
2018-07-21T11:29:21.364Z,3.7
2018-07-21T11:39:31.218Z,3.7
2018-07-21T12:00:21.461Z,3.6
2018-07-21T12:10:21.725Z,5.1
2018-07-21T12:20:21.353Z,4.8
2018-07-21T12:30:21.289Z,5.3
2018-07-21T12:40:20.847Z,4.8
2018-07-21T12:50:20.989Z,4.8
2018-07-21T13:00:20.549Z,4
2018-07-21T13:10:20.894Z,4.3
2018-07-21T13:20:21.169Z,4
2018-07-21T13:30:20.700Z,4
2018-07-21T13:40:23.959Z,4.2
2018-07-21T13:50:23.507Z,3.5
2018-07-21T14:00:23.586Z,3.3
2018-07-21T14:10:23.184Z,3.4
2018-07-21T14:20:25.190Z,3
2018-07-21T14:30:37.378Z,2.8
2018-07-21T14:40:38.285Z,2.5
2018-07-21T14:50:37.910Z,3.7
2018-07-21T15:00:42.530Z,2.5
2018-07-21T15:10:42.413Z,3.1
2018-07-21T15:20:42.327Z,3.1
2018-07-21T15:30:42.906Z,2.9
2018-07-21T15:40:42.697Z,3.1
2018-07-21T15:50:45.027Z,5
2018-07-21T16:00:46.600Z,4.6
2018-07-21T16:10:49.189Z,4.9
2018-07-21T16:20:49.490Z,4.5
2018-07-21T16:30:49.455Z,5.1
2018-07-21T16:40:50.246Z,4.8
2018-07-21T16:51:04.213Z,3.8
2018-07-21T17:01:24.929Z,4.7
2018-07-21T17:11:51.317Z,4.7
2018-07-21T17:22:05.894Z,3.2
2018-07-21T17:32:35.905Z,4.6
2018-07-21T17:42:49.795Z,2.7
2018-07-21T17:53:13.409Z,3.9
2018-07-21T18:03:45.414Z,2.7
2018-07-21T18:14:08.954Z,1.8
2018-07-21T18:24:28.158Z,2.1
2018-07-21T18:34:46.338Z,1.9
2018-07-21T18:45:41.280Z,2.3
2018-07-21T18:55:57.855Z,1.7
2018-07-21T19:06:17.106Z,2.4
2018-07-21T19:16:25.546Z,2
2018-07-21T19:26:25.423Z,2
2018-07-21T19:36:26.080Z,2.4
2018-07-21T19:46:25.950Z,2.6
2018-07-21T19:56:26.775Z,2
2018-07-21T20:06:27.729Z,1.5
2018-07-21T20:16:33.860Z,1.9
2018-07-21T20:27:08.804Z,1.9
2018-07-21T20:37:29.811Z,2.1
2018-07-21T20:48:03.685Z,1.6
2018-07-21T20:58:11.720Z,2.2
2018-07-21T21:08:50.660Z,1.7
2018-07-21T21:18:58.779Z,2.6
2018-07-21T21:29:26.227Z,2.5
2018-07-21T21:40:00.039Z,2.7
2018-07-21T21:50:00.962Z,2.1
2018-07-21T22:00:00.909Z,2
2018-07-21T22:10:01.109Z,2
2018-07-21T22:20:03.126Z,2.6
2018-07-21T22:30:02.735Z,1.9
2018-07-21T22:40:07.124Z,2.4
2018-07-21T22:50:23.927Z,2.6
2018-07-21T23:00:39.401Z,2.3
2018-07-21T23:10:52.556Z,2
2018-07-21T23:21:13.612Z,2.2
2018-07-21T23:31:31.746Z,1.7
2018-07-21T23:42:01.092Z,2.1
2018-07-21T23:52:29.489Z,2.1
